AVA9451 SKRG-SKRH
Flight info
| Callsign | AVA9451 |
|---|---|
| Flight time | 1h 1m |
| Altitude | 37000 |
| Route | BIVIG1B BIVIG DCT GERNA DCT ELB DCT ISLAG DCT VUP VUP1S |
| Aircraft | A320/M-SDE3FGHIRWY/LB1 |
Departure
| Time | 2026-05-09 01:41 |
|---|---|
| Airport | Jose Maria Córdova International Airport (SKRG) |
Arrival
| Time | 2026-05-09 02:43 |
|---|---|
| Airport | Almirante Padilla Airport (SKRH) |
| Time | Latitude | Longitude | Altitude | Speed | Heading |
|---|---|---|---|---|---|
| 2026-05-09 00:36 | 6.17002 | -75.42738 | 7018 ft | 0 kts | 317° |
| 2026-05-09 01:23 | 6.16992 | -75.42729 | 7019 ft | 3 kts | 330° |
| 2026-05-09 01:23 | 6.16971 | -75.42723 | 7018 ft | 3 kts | 9° |
| 2026-05-09 01:23 | 6.16949 | -75.42731 | 7020 ft | 3 kts | 39° |
| 2026-05-09 01:24 | 6.16933 | -75.42749 | 7018 ft | 3 kts | 62° |
| 2026-05-09 01:24 | 6.16942 | -75.42734 | 7019 ft | 3 kts | 58° |
| 2026-05-09 01:24 | 6.16957 | -75.42714 | 7021 ft | 3 kts | 50° |
| 2026-05-09 01:24 | 6.16974 | -75.42697 | 7018 ft | 3 kts | 43° |
| 2026-05-09 01:25 | 6.16993 | -75.42682 | 7018 ft | 3 kts | 35° |
| 2026-05-09 01:25 | 6.16995 | -75.42681 | 7018 ft | 0 kts | 34° |
| 2026-05-09 01:28 | 6.16996 | -75.42680 | 7018 ft | 2 kts | 34° |
| 2026-05-09 01:29 | 6.17043 | -75.42647 | 7023 ft | 14 kts | 40° |
| 2026-05-09 01:29 | 6.17010 | -75.42586 | 7016 ft | 12 kts | 159° |
| 2026-05-09 01:29 | 6.16939 | -75.42533 | 7016 ft | 14 kts | 146° |
| 2026-05-09 01:29 | 6.16834 | -75.42485 | 7004 ft | 20 kts | 174° |
| 2026-05-09 01:30 | 6.16682 | -75.42482 | 6997 ft | 24 kts | 179° |
| 2026-05-09 01:30 | 6.16501 | -75.42481 | 6984 ft | 28 kts | 179° |
| 2026-05-09 01:30 | 6.16312 | -75.42479 | 6981 ft | 28 kts | 179° |
| 2026-05-09 01:30 | 6.16130 | -75.42477 | 6977 ft | 22 kts | 180° |
| 2026-05-09 01:31 | 6.15996 | -75.42477 | 6976 ft | 15 kts | 180° |
| 2026-05-09 01:31 | 6.15889 | -75.42476 | 6975 ft | 16 kts | 179° |
| 2026-05-09 01:31 | 6.15776 | -75.42476 | 6975 ft | 17 kts | 180° |
| 2026-05-09 01:31 | 6.15657 | -75.42475 | 6975 ft | 17 kts | 180° |
| 2026-05-09 01:32 | 6.15538 | -75.42473 | 6976 ft | 18 kts | 179° |
| 2026-05-09 01:32 | 6.15414 | -75.42473 | 6975 ft | 18 kts | 180° |
| 2026-05-09 01:32 | 6.15287 | -75.42473 | 6977 ft | 19 kts | 180° |
| 2026-05-09 01:32 | 6.15156 | -75.42473 | 6977 ft | 19 kts | 180° |
| 2026-05-09 01:33 | 6.15021 | -75.42472 | 6978 ft | 20 kts | 179° |
| 2026-05-09 01:33 | 6.14910 | -75.42475 | 6976 ft | 13 kts | 193° |
| 2026-05-09 01:33 | 6.14838 | -75.42480 | 6974 ft | 9 kts | 158° |
| 2026-05-09 01:33 | 6.14817 | -75.42427 | 6972 ft | 8 kts | 90° |
| 2026-05-09 01:34 | 6.14817 | -75.42414 | 6972 ft | 0 kts | 88° |
| 2026-05-09 01:37 | 6.14817 | -75.42413 | 6972 ft | 0 kts | 88° |
| 2026-05-09 01:38 | 6.14819 | -75.42403 | 6972 ft | 5 kts | 78° |
| 2026-05-09 01:38 | 6.14853 | -75.42365 | 6974 ft | 9 kts | 33° |
| 2026-05-09 01:38 | 6.14905 | -75.42334 | 6976 ft | 8 kts | 31° |
| 2026-05-09 01:38 | 6.14948 | -75.42308 | 6977 ft | 7 kts | 31° |
| 2026-05-09 01:39 | 6.14985 | -75.42299 | 6978 ft | 2 kts | 360° |
| 2026-05-09 01:39 | 6.14986 | -75.42299 | 6978 ft | 0 kts | 360° |
| 2026-05-09 01:40 | 6.15246 | -75.42299 | 6981 ft | 74 kts | 359° |
| 2026-05-09 01:40 | 6.15984 | -75.42306 | 6979 ft | 136 kts | 359° |
| 2026-05-09 01:41 | 6.17090 | -75.42313 | 7095 ft | 175 kts | 359° |
| 2026-05-09 01:41 | 6.18308 | -75.42333 | 7900 ft | 175 kts | 0° |
| 2026-05-09 01:41 | 6.19526 | -75.42333 | 8457 ft | 181 kts | 2° |
| 2026-05-09 01:41 | 6.20846 | -75.42312 | 8598 ft | 202 kts | 9° |
| 2026-05-09 01:42 | 6.22138 | -75.41689 | 8779 ft | 218 kts | 48° |
| 2026-05-09 01:42 | 6.22856 | -75.40298 | 9011 ft | 238 kts | 77° |
| 2026-05-09 01:42 | 6.23248 | -75.38603 | 9338 ft | 259 kts | 77° |
| 2026-05-09 01:42 | 6.23647 | -75.36763 | 9726 ft | 280 kts | 78° |
| 2026-05-09 01:43 | 6.24090 | -75.34795 | 10124 ft | 298 kts | 75° |
| 2026-05-09 01:43 | 6.24801 | -75.32753 | 10331 ft | 321 kts | 66° |
| 2026-05-09 01:43 | 6.25805 | -75.30692 | 10798 ft | 332 kts | 62° |
| 2026-05-09 01:43 | 6.26940 | -75.28650 | 11482 ft | 335 kts | 60° |
| 2026-05-09 01:44 | 6.28084 | -75.26642 | 12199 ft | 337 kts | 60° |
| 2026-05-09 01:44 | 6.29498 | -75.24756 | 12822 ft | 343 kts | 41° |
| 2026-05-09 01:44 | 6.31593 | -75.23610 | 13428 ft | 349 kts | 16° |
| 2026-05-09 01:44 | 6.34019 | -75.23306 | 13934 ft | 355 kts | 1° |
| 2026-05-09 01:45 | 6.36493 | -75.23487 | 14544 ft | 358 kts | 354° |
| 2026-05-09 01:45 | 6.38970 | -75.23830 | 15132 ft | 361 kts | 353° |
| 2026-05-09 01:45 | 6.41472 | -75.24138 | 15705 ft | 364 kts | 355° |
| 2026-05-09 01:45 | 6.44005 | -75.24339 | 16273 ft | 366 kts | 357° |
| 2026-05-09 01:46 | 6.46529 | -75.24417 | 16839 ft | 369 kts | 1° |
| 2026-05-09 01:46 | 6.49109 | -75.24305 | 17380 ft | 373 kts | 4° |
| 2026-05-09 01:46 | 6.51704 | -75.24063 | 17942 ft | 376 kts | 6° |
| 2026-05-09 01:46 | 6.54314 | -75.23765 | 18449 ft | 380 kts | 6° |
| 2026-05-09 01:47 | 6.56956 | -75.23460 | 18903 ft | 383 kts | 6° |
| 2026-05-09 01:47 | 6.59617 | -75.23176 | 19371 ft | 386 kts | 6° |
| 2026-05-09 01:47 | 6.62300 | -75.22916 | 19827 ft | 389 kts | 5° |
| 2026-05-09 01:47 | 6.65010 | -75.22673 | 20300 ft | 392 kts | 5° |
| 2026-05-09 01:48 | 6.67736 | -75.22439 | 20770 ft | 394 kts | 5° |
| 2026-05-09 01:48 | 6.70478 | -75.22211 | 21225 ft | 397 kts | 5° |
| 2026-05-09 01:48 | 6.73193 | -75.21988 | 21676 ft | 399 kts | 5° |
| 2026-05-09 01:48 | 6.75976 | -75.21758 | 22121 ft | 402 kts | 6° |
| 2026-05-09 01:49 | 6.78773 | -75.21519 | 22536 ft | 405 kts | 6° |
| 2026-05-09 01:49 | 6.81591 | -75.21275 | 22961 ft | 408 kts | 6° |
| 2026-05-09 01:49 | 6.84419 | -75.21030 | 23369 ft | 410 kts | 6° |
| 2026-05-09 01:49 | 6.87275 | -75.20782 | 23759 ft | 413 kts | 6° |
| 2026-05-09 01:50 | 6.90147 | -75.20533 | 24119 ft | 415 kts | 6° |
| 2026-05-09 01:50 | 6.93033 | -75.20281 | 24448 ft | 417 kts | 6° |
| 2026-05-09 01:50 | 6.95934 | -75.20028 | 24795 ft | 419 kts | 6° |
| 2026-05-09 01:50 | 6.98810 | -75.19775 | 25157 ft | 421 kts | 7° |
| 2026-05-09 01:51 | 7.01686 | -75.19238 | 25499 ft | 422 kts | 17° |
| 2026-05-09 01:51 | 7.04432 | -75.18203 | 25847 ft | 423 kts | 27° |
| 2026-05-09 01:51 | 7.07026 | -75.16803 | 26161 ft | 424 kts | 29° |
| 2026-05-09 01:51 | 7.09625 | -75.15376 | 26515 ft | 426 kts | 29° |
| 2026-05-09 01:52 | 7.12237 | -75.13950 | 26856 ft | 428 kts | 29° |
| 2026-05-09 01:52 | 7.14862 | -75.12523 | 27188 ft | 430 kts | 29° |
| 2026-05-09 01:52 | 7.17501 | -75.11086 | 27517 ft | 432 kts | 29° |
| 2026-05-09 01:52 | 7.20154 | -75.09641 | 27837 ft | 434 kts | 29° |
| 2026-05-09 01:53 | 7.22775 | -75.08209 | 28165 ft | 436 kts | 29° |
| 2026-05-09 01:53 | 7.25444 | -75.06748 | 28494 ft | 438 kts | 29° |
| 2026-05-09 01:53 | 7.28131 | -75.05279 | 28803 ft | 440 kts | 29° |
| 2026-05-09 01:53 | 7.30829 | -75.03804 | 29126 ft | 442 kts | 28° |
| 2026-05-09 01:54 | 7.33540 | -75.02323 | 29446 ft | 444 kts | 28° |
| 2026-05-09 01:54 | 7.36265 | -75.00834 | 29714 ft | 447 kts | 28° |
| 2026-05-09 01:54 | 7.39006 | -74.99338 | 29997 ft | 449 kts | 28° |
| 2026-05-09 01:54 | 7.41760 | -74.97834 | 30241 ft | 451 kts | 28° |
| 2026-05-09 01:55 | 7.44487 | -74.96343 | 30486 ft | 453 kts | 28° |
| 2026-05-09 01:55 | 7.47256 | -74.94826 | 30740 ft | 454 kts | 28° |
| 2026-05-09 01:55 | 7.50038 | -74.93303 | 30957 ft | 456 kts | 28° |
| 2026-05-09 01:55 | 7.52827 | -74.91776 | 31197 ft | 457 kts | 28° |
| 2026-05-09 01:56 | 7.55629 | -74.90241 | 31445 ft | 459 kts | 28° |
| 2026-05-09 01:56 | 7.58434 | -74.88703 | 31784 ft | 458 kts | 28° |
| 2026-05-09 01:56 | 7.61224 | -74.87175 | 32132 ft | 457 kts | 28° |
| 2026-05-09 01:56 | 7.64006 | -74.85637 | 32470 ft | 455 kts | 30° |
| 2026-05-09 01:57 | 7.66703 | -74.84043 | 32814 ft | 455 kts | 31° |
| 2026-05-09 01:57 | 7.69385 | -74.82361 | 33163 ft | 454 kts | 32° |
| 2026-05-09 01:57 | 7.72036 | -74.80645 | 33548 ft | 452 kts | 33° |
| 2026-05-09 01:57 | 7.74666 | -74.78928 | 33952 ft | 450 kts | 33° |
| 2026-05-09 01:58 | 7.77293 | -74.77223 | 34264 ft | 449 kts | 32° |
| 2026-05-09 01:58 | 7.79926 | -74.75534 | 34537 ft | 448 kts | 32° |
| 2026-05-09 01:58 | 7.82569 | -74.73861 | 34790 ft | 449 kts | 32° |
| 2026-05-09 01:58 | 7.85212 | -74.72201 | 35046 ft | 449 kts | 32° |
| 2026-05-09 01:59 | 7.87830 | -74.70560 | 35293 ft | 449 kts | 32° |
| 2026-05-09 01:59 | 7.90483 | -74.68899 | 35534 ft | 449 kts | 32° |
| 2026-05-09 01:59 | 7.93135 | -74.67233 | 35774 ft | 449 kts | 32° |
| 2026-05-09 01:59 | 7.95777 | -74.65568 | 36025 ft | 449 kts | 32° |
| 2026-05-09 02:00 | 7.98423 | -74.63897 | 36267 ft | 449 kts | 32° |
| 2026-05-09 02:00 | 8.01071 | -74.62224 | 36482 ft | 449 kts | 32° |
| 2026-05-09 02:00 | 8.03713 | -74.60553 | 36690 ft | 450 kts | 32° |
| 2026-05-09 02:00 | 8.06331 | -74.58900 | 36854 ft | 451 kts | 32° |
| 2026-05-09 02:01 | 8.11638 | -74.55552 | 36892 ft | 448 kts | 32° |
| 2026-05-09 02:01 | 8.16920 | -74.52219 | 36893 ft | 448 kts | 32° |
| 2026-05-09 02:02 | 8.22197 | -74.48878 | 36899 ft | 448 kts | 32° |
| 2026-05-09 02:02 | 8.27439 | -74.45568 | 36898 ft | 448 kts | 32° |
| 2026-05-09 02:03 | 8.32718 | -74.42232 | 36898 ft | 448 kts | 32° |
| 2026-05-09 02:03 | 8.37995 | -74.38890 | 36884 ft | 448 kts | 32° |
| 2026-05-09 02:04 | 8.43269 | -74.35555 | 36897 ft | 448 kts | 31° |
| 2026-05-09 02:04 | 8.48556 | -74.32210 | 36869 ft | 449 kts | 32° |
| 2026-05-09 02:05 | 8.53818 | -74.28880 | 36870 ft | 449 kts | 31° |
| 2026-05-09 02:05 | 8.59118 | -74.25527 | 36871 ft | 450 kts | 32° |
| 2026-05-09 02:06 | 8.64428 | -74.22162 | 36858 ft | 450 kts | 32° |
| 2026-05-09 02:07 | 8.72354 | -74.17134 | 36867 ft | 451 kts | 32° |
| 2026-05-09 02:07 | 8.77667 | -74.13765 | 36860 ft | 451 kts | 31° |
| 2026-05-09 02:08 | 8.82998 | -74.10395 | 36857 ft | 452 kts | 31° |
| 2026-05-09 02:08 | 8.88335 | -74.07024 | 36859 ft | 453 kts | 31° |
| 2026-05-09 02:09 | 8.93668 | -74.03633 | 36855 ft | 453 kts | 31° |
| 2026-05-09 02:09 | 8.98966 | -74.00253 | 36862 ft | 453 kts | 31° |
| 2026-05-09 02:10 | 9.04322 | -73.96915 | 36869 ft | 452 kts | 26° |
| 2026-05-09 02:10 | 9.10095 | -73.94450 | 36871 ft | 450 kts | 20° |
| 2026-05-09 02:11 | 9.15908 | -73.92088 | 36860 ft | 451 kts | 20° |
| 2026-05-09 02:11 | 9.21698 | -73.89734 | 36846 ft | 451 kts | 20° |
| 2026-05-09 02:12 | 9.27530 | -73.87358 | 36846 ft | 452 kts | 20° |
| 2026-05-09 02:12 | 9.33366 | -73.84977 | 36850 ft | 452 kts | 20° |
| 2026-05-09 02:13 | 9.39201 | -73.82603 | 36854 ft | 452 kts | 20° |
| 2026-05-09 02:13 | 9.45004 | -73.80237 | 36856 ft | 453 kts | 20° |
| 2026-05-09 02:14 | 9.50848 | -73.77851 | 36861 ft | 453 kts | 20° |
| 2026-05-09 02:14 | 9.56692 | -73.75468 | 36862 ft | 453 kts | 20° |
| 2026-05-09 02:15 | 9.62529 | -73.73081 | 36861 ft | 452 kts | 20° |
| 2026-05-09 02:15 | 9.65406 | -73.71905 | 36852 ft | 439 kts | 20° |
| 2026-05-09 02:15 | 9.68152 | -73.70776 | 36856 ft | 426 kts | 22° |
| 2026-05-09 02:16 | 9.73323 | -73.67858 | 36515 ft | 435 kts | 29° |
| 2026-05-09 02:16 | 9.75963 | -73.66268 | 36258 ft | 446 kts | 29° |
| 2026-05-09 02:16 | 9.78646 | -73.64654 | 36043 ft | 450 kts | 29° |
| 2026-05-09 02:16 | 9.81341 | -73.63036 | 35798 ft | 451 kts | 29° |
| 2026-05-09 02:17 | 9.84033 | -73.61418 | 35549 ft | 449 kts | 29° |
| 2026-05-09 02:17 | 9.86717 | -73.59800 | 35320 ft | 449 kts | 30° |
| 2026-05-09 02:17 | 9.89395 | -73.58182 | 35086 ft | 446 kts | 30° |
| 2026-05-09 02:17 | 9.92047 | -73.56581 | 34854 ft | 442 kts | 30° |
| 2026-05-09 02:18 | 9.94649 | -73.55012 | 34575 ft | 438 kts | 30° |
| 2026-05-09 02:18 | 9.97249 | -73.53447 | 34051 ft | 430 kts | 30° |
| 2026-05-09 02:18 | 9.99788 | -73.51917 | 33504 ft | 418 kts | 30° |
| 2026-05-09 02:18 | 10.02262 | -73.50424 | 33036 ft | 411 kts | 30° |
| 2026-05-09 02:19 | 10.04713 | -73.48944 | 32536 ft | 409 kts | 30° |
| 2026-05-09 02:19 | 10.07152 | -73.47471 | 32046 ft | 407 kts | 30° |
| 2026-05-09 02:19 | 10.09576 | -73.46006 | 31555 ft | 405 kts | 31° |
| 2026-05-09 02:19 | 10.11987 | -73.44548 | 31083 ft | 402 kts | 31° |
| 2026-05-09 02:20 | 10.14386 | -73.43102 | 30616 ft | 400 kts | 31° |
| 2026-05-09 02:20 | 10.16741 | -73.41682 | 30183 ft | 398 kts | 31° |
| 2026-05-09 02:20 | 10.19113 | -73.40255 | 29675 ft | 395 kts | 31° |
| 2026-05-09 02:20 | 10.21465 | -73.38838 | 29225 ft | 391 kts | 31° |
| 2026-05-09 02:21 | 10.23786 | -73.37435 | 28790 ft | 386 kts | 31° |
| 2026-05-09 02:21 | 10.26077 | -73.36048 | 28374 ft | 381 kts | 31° |
| 2026-05-09 02:21 | 10.28340 | -73.34678 | 27965 ft | 376 kts | 32° |
| 2026-05-09 02:21 | 10.30577 | -73.33323 | 27542 ft | 372 kts | 32° |
| 2026-05-09 02:22 | 10.32791 | -73.31983 | 27120 ft | 368 kts | 32° |
| 2026-05-09 02:22 | 10.34956 | -73.30678 | 26703 ft | 365 kts | 32° |
| 2026-05-09 02:22 | 10.37131 | -73.29365 | 26273 ft | 362 kts | 32° |
| 2026-05-09 02:22 | 10.39288 | -73.28062 | 25852 ft | 360 kts | 32° |
| 2026-05-09 02:23 | 10.41432 | -73.26764 | 25413 ft | 358 kts | 33° |
| 2026-05-09 02:23 | 10.43568 | -73.25478 | 24974 ft | 356 kts | 31° |
| 2026-05-09 02:23 | 10.45839 | -73.24466 | 24503 ft | 358 kts | 21° |
| 2026-05-09 02:23 | 10.48207 | -73.23692 | 24037 ft | 358 kts | 21° |
| 2026-05-09 02:24 | 10.50580 | -73.22919 | 23544 ft | 358 kts | 21° |
| 2026-05-09 02:24 | 10.52942 | -73.22150 | 23005 ft | 354 kts | 21° |
| 2026-05-09 02:24 | 10.55216 | -73.21409 | 22613 ft | 341 kts | 21° |
| 2026-05-09 02:24 | 10.57431 | -73.20689 | 22185 ft | 329 kts | 21° |
| 2026-05-09 02:25 | 10.59577 | -73.19990 | 21757 ft | 319 kts | 21° |
| 2026-05-09 02:25 | 10.61682 | -73.19300 | 21350 ft | 317 kts | 21° |
| 2026-05-09 02:25 | 10.63785 | -73.18606 | 20934 ft | 318 kts | 21° |
| 2026-05-09 02:25 | 10.65887 | -73.17912 | 20512 ft | 319 kts | 21° |
| 2026-05-09 02:26 | 10.68000 | -73.17217 | 20113 ft | 319 kts | 21° |
| 2026-05-09 02:26 | 10.70121 | -73.16521 | 19700 ft | 321 kts | 21° |
| 2026-05-09 02:26 | 10.72255 | -73.15822 | 19279 ft | 323 kts | 20° |
| 2026-05-09 02:26 | 10.74373 | -73.15131 | 18873 ft | 325 kts | 20° |
| 2026-05-09 02:27 | 10.76535 | -73.14424 | 18460 ft | 327 kts | 20° |
| 2026-05-09 02:27 | 10.78704 | -73.13712 | 18019 ft | 328 kts | 20° |
| 2026-05-09 02:27 | 10.80876 | -73.12999 | 17611 ft | 328 kts | 20° |
| 2026-05-09 02:27 | 10.83043 | -73.12290 | 17201 ft | 328 kts | 20° |
| 2026-05-09 02:28 | 10.85214 | -73.11578 | 16795 ft | 328 kts | 20° |
| 2026-05-09 02:28 | 10.87385 | -73.10866 | 16390 ft | 328 kts | 20° |
| 2026-05-09 02:28 | 10.89554 | -73.10155 | 15987 ft | 327 kts | 20° |
| 2026-05-09 02:28 | 10.91694 | -73.09456 | 15592 ft | 327 kts | 20° |
| 2026-05-09 02:29 | 10.93875 | -73.08787 | 15173 ft | 327 kts | 19° |
| 2026-05-09 02:29 | 10.96065 | -73.08154 | 14779 ft | 327 kts | 18° |
| 2026-05-09 02:29 | 10.98260 | -73.07536 | 14374 ft | 327 kts | 18° |
| 2026-05-09 02:29 | 11.00453 | -73.06917 | 13967 ft | 327 kts | 18° |
| 2026-05-09 02:30 | 11.02671 | -73.06418 | 13545 ft | 328 kts | 7° |
| 2026-05-09 02:30 | 11.04956 | -73.06528 | 13127 ft | 331 kts | 351° |
| 2026-05-09 02:30 | 11.07110 | -73.07276 | 12727 ft | 334 kts | 336° |
| 2026-05-09 02:30 | 11.09187 | -73.08333 | 12297 ft | 333 kts | 336° |
| 2026-05-09 02:31 | 11.11252 | -73.09384 | 11891 ft | 332 kts | 336° |
| 2026-05-09 02:31 | 11.13290 | -73.10418 | 11455 ft | 321 kts | 336° |
| 2026-05-09 02:31 | 11.15249 | -73.11414 | 11049 ft | 309 kts | 336° |
| 2026-05-09 02:31 | 11.17137 | -73.12376 | 10647 ft | 298 kts | 336° |
| 2026-05-09 02:32 | 11.18966 | -73.13306 | 10256 ft | 289 kts | 336° |
| 2026-05-09 02:32 | 11.20743 | -73.14206 | 9873 ft | 282 kts | 336° |
| 2026-05-09 02:32 | 11.22477 | -73.15087 | 9460 ft | 275 kts | 336° |
| 2026-05-09 02:32 | 11.24139 | -73.15931 | 9083 ft | 266 kts | 336° |
| 2026-05-09 02:33 | 11.25772 | -73.16761 | 8721 ft | 258 kts | 336° |
| 2026-05-09 02:33 | 11.27353 | -73.17563 | 8349 ft | 253 kts | 336° |
| 2026-05-09 02:33 | 11.28925 | -73.18361 | 7983 ft | 252 kts | 336° |
| 2026-05-09 02:33 | 11.30487 | -73.19155 | 7613 ft | 250 kts | 336° |
| 2026-05-09 02:34 | 11.32041 | -73.19944 | 7214 ft | 248 kts | 336° |
| 2026-05-09 02:34 | 11.33576 | -73.20723 | 6857 ft | 245 kts | 336° |
| 2026-05-09 02:34 | 11.35097 | -73.21496 | 6471 ft | 243 kts | 335° |
| 2026-05-09 02:34 | 11.36614 | -73.22241 | 6084 ft | 240 kts | 342° |
| 2026-05-09 02:35 | 11.38217 | -73.22609 | 5706 ft | 234 kts | 0° |
| 2026-05-09 02:35 | 11.39788 | -73.22487 | 5333 ft | 227 kts | 17° |
| 2026-05-09 02:35 | 11.41238 | -73.21933 | 4950 ft | 220 kts | 33° |
| 2026-05-09 02:35 | 11.42458 | -73.21036 | 4584 ft | 214 kts | 44° |
| 2026-05-09 02:36 | 11.43589 | -73.20055 | 4197 ft | 212 kts | 43° |
| 2026-05-09 02:36 | 11.44694 | -73.19081 | 3857 ft | 207 kts | 48° |
| 2026-05-09 02:36 | 11.45610 | -73.18019 | 3806 ft | 196 kts | 53° |
| 2026-05-09 02:36 | 11.46484 | -73.16967 | 3746 ft | 194 kts | 53° |
| 2026-05-09 02:37 | 11.47356 | -73.15925 | 3673 ft | 192 kts | 52° |
| 2026-05-09 02:37 | 11.48223 | -73.14887 | 3593 ft | 192 kts | 53° |
| 2026-05-09 02:37 | 11.49072 | -73.13868 | 3502 ft | 191 kts | 53° |
| 2026-05-09 02:37 | 11.49927 | -73.12840 | 3427 ft | 190 kts | 52° |
| 2026-05-09 02:38 | 11.50780 | -73.11815 | 3319 ft | 189 kts | 53° |
| 2026-05-09 02:38 | 11.51608 | -73.10781 | 3236 ft | 188 kts | 60° |
| 2026-05-09 02:38 | 11.52101 | -73.09564 | 3113 ft | 187 kts | 81° |
| 2026-05-09 02:38 | 11.52181 | -73.08268 | 2856 ft | 178 kts | 89° |
| 2026-05-09 02:39 | 11.52212 | -73.07058 | 2601 ft | 168 kts | 88° |
| 2026-05-09 02:39 | 11.52246 | -73.05899 | 2367 ft | 159 kts | 89° |
| 2026-05-09 02:39 | 11.52278 | -73.04821 | 2157 ft | 147 kts | 89° |
| 2026-05-09 02:39 | 11.52308 | -73.03812 | 1997 ft | 138 kts | 89° |
| 2026-05-09 02:40 | 11.52336 | -73.02844 | 1795 ft | 136 kts | 89° |
| 2026-05-09 02:40 | 11.52364 | -73.01892 | 1611 ft | 133 kts | 89° |
| 2026-05-09 02:40 | 11.52390 | -73.00941 | 1426 ft | 135 kts | 89° |
| 2026-05-09 02:40 | 11.52416 | -72.99988 | 1249 ft | 134 kts | 89° |
| 2026-05-09 02:41 | 11.52443 | -72.99040 | 1072 ft | 134 kts | 89° |
| 2026-05-09 02:41 | 11.52469 | -72.98101 | 902 ft | 135 kts | 89° |
| 2026-05-09 02:41 | 11.52494 | -72.97144 | 722 ft | 135 kts | 88° |
| 2026-05-09 02:41 | 11.52519 | -72.96192 | 531 ft | 135 kts | 87° |
| 2026-05-09 02:42 | 11.52542 | -72.95234 | 359 ft | 135 kts | 88° |
| 2026-05-09 02:42 | 11.52568 | -72.94285 | 200 ft | 133 kts | 87° |
| 2026-05-09 02:42 | 11.52596 | -72.93364 | 67 ft | 131 kts | 88° |
| 2026-05-09 02:42 | 11.52620 | -72.92622 | 51 ft | 58 kts | 89° |
| 2026-05-09 02:43 | 11.52629 | -72.92285 | 51 ft | 41 kts | 88° |
| 2026-05-09 02:43 | 11.52634 | -72.92070 | 53 ft | 28 kts | 88° |
| 2026-05-09 02:43 | 11.52638 | -72.91943 | 53 ft | 8 kts | 87° |
| 2026-05-09 02:43 | 11.52667 | -72.91901 | 53 ft | 8 kts | 2° |
| 2026-05-09 02:44 | 11.52712 | -72.91903 | 52 ft | 4 kts | 358° |
| 2026-05-09 02:44 | 11.52736 | -72.91905 | 52 ft | 3 kts | 353° |
| 2026-05-09 02:44 | 11.52749 | -72.91915 | 52 ft | 2 kts | 306° |
| 2026-05-09 02:44 | 11.52749 | -72.91920 | 52 ft | 0 kts | 278° |
| 2026-05-09 02:45 | 11.52754 | -72.91939 | 52 ft | 4 kts | 312° |
| 2026-05-09 02:45 | 11.52773 | -72.91944 | 52 ft | 2 kts | 352° |
| 2026-05-09 02:45 | 11.52787 | -72.91944 | 52 ft | 2 kts | 358° |
| 2026-05-09 02:45 | 11.52795 | -72.91944 | 52 ft | 0 kts | 358° |